Kettleman City, California
Current Conditions -  °F | °C
As of 11:56 AM on Saturday 20 Dec 2014 (Local Time) from KNLC Reporting Station
Few Clouds Few Clouds  
Wind Chill: 59°   Ceiling: Unl
Heat Index: 59°   Visibility: NA
Dew Point: 50°   Wind: 5mph
Humidity: 72%   Direction: 60°ENE
Pressure: 30.21"   Gusts: NA
Location:  36.01°N, 119.96°W
Report Text: KNLC 201956Z AUTO 06004KT FEW085 15/10 A3021 RMK AO2 SLP232 T01500100 RVRNO $
Loading
Personal Weather Stations






























Interactive Weather Map New forecast layout! Learn more

10-Day Weather Forecast

Advertisements
Track Severe Weather on mobile